Главная страница
METAR-TAF:

METAR-TAF

Аэропорты :

Сунан

Пхеньян, Северная Корея

широта: 39-02N, долгота: 125-47E, высота над уровнем моря: 36 м

METAR: отсутствует

Время: 19:53 (11:23 UTC)

Прогноз

Эта сводка был подготовлена 7 часа и 23 минут назад, в 04:00 UTC
Прогноз действительный с 24-го 06 UTC до 25-го 06 UTC
Ветер 10 Узел от северный
Видимость 10 км и более
Нет облачности ниже 1500 м, и нет кучево-дождевой облачности

TAF: ZKPY 240400Z 2406/2506 35005MPS CAVOK TX21/2406Z TN09/2421Z

Метеонаблюдения и прогнозы для более 4000 аэропортов (сводки METAR и TAF).

Имеющиеся станции представлены на карте желтыми и красными точками.

Чтобы увидеть название станции, наведите на нее мышь.

Затем щелкните, чтобы увидеть метеонаблюдения и метеопрогнозы.

Управление картой: чтобы увеличить масштаб, щелкните зеленые кнопки с черным крестиком; чтобы уменьшить масштаб, щелкните зеленую кнопку с тире; для просмотра соседних карт щелкайте зеленые стрелки.


METAR-TAF: